sensor_id;sensor_type;location;lat;lon;timestamp;P1;durP1;ratioP1;P2;durP2;ratioP2
71083;SDS011;58741;52.672;13.548;2023-03-01T00:01:16;3.20;;;1.23;;
71083;SDS011;58741;52.672;13.548;2023-03-01T00:03:43;6.05;;;1.40;;
71083;SDS011;58741;52.672;13.548;2023-03-01T00:06:09;1.92;;;1.25;;
71083;SDS011;58741;52.672;13.548;2023-03-01T00:08:35;2.10;;;1.30;;
71083;SDS011;58741;52.672;13.548;2023-03-01T00:11:02;8.43;;;1.45;;
71083;SDS011;58741;52.672;13.548;2023-03-01T00:13:29;4.00;;;1.50;;
71083;SDS011;58741;52.672;13.548;2023-03-01T00:15:55;2.58;;;1.23;;
71083;SDS011;58741;52.672;13.548;2023-03-01T00:18:20;2.08;;;1.15;;
71083;SDS011;58741;52.672;13.548;2023-03-01T00:20:52;2.03;;;1.10;;
71083;SDS011;58741;52.672;13.548;2023-03-01T00:23:19;1.13;;;1.00;;
71083;SDS011;58741;52.672;13.548;2023-03-01T00:25:45;1.92;;;1.15;;
71083;SDS011;58741;52.672;13.548;2023-03-01T00:28:11;1.17;;;0.90;;
71083;SDS011;58741;52.672;13.548;2023-03-01T00:30:36;3.00;;;1.52;;
71083;SDS011;58741;52.672;13.548;2023-03-01T00:33:02;1.42;;;0.80;;
71083;SDS011;58741;52.672;13.548;2023-03-01T00:35:28;1.48;;;0.80;;
71083;SDS011;58741;52.672;13.548;2023-03-01T00:37:53;3.13;;;0.82;;
71083;SDS011;58741;52.672;13.548;2023-03-01T00:40:29;1.58;;;1.15;;
71083;SDS011;58741;52.672;13.548;2023-03-01T00:42:56;4.32;;;1.10;;
71083;SDS011;58741;52.672;13.548;2023-03-01T00:45:22;2.22;;;1.20;;
71083;SDS011;58741;52.672;13.548;2023-03-01T00:47:48;1.35;;;0.82;;
71083;SDS011;58741;52.672;13.548;2023-03-01T00:50:14;1.75;;;0.77;;
71083;SDS011;58741;52.672;13.548;2023-03-01T00:52:40;1.10;;;0.73;;
71083;SDS011;58741;52.672;13.548;2023-03-01T00:55:06;1.05;;;0.95;;
71083;SDS011;58741;52.672;13.548;2023-03-01T00:57:33;1.77;;;1.15;;
71083;SDS011;58741;52.672;13.548;2023-03-01T00:59:58;1.83;;;1.33;;
71083;SDS011;58741;52.672;13.548;2023-03-01T01:02:24;2.20;;;0.80;;
71083;SDS011;58741;52.672;13.548;2023-03-01T01:04:50;3.25;;;1.33;;
71083;SDS011;58741;52.672;13.548;2023-03-01T01:07:16;2.30;;;1.77;;
71083;SDS011;58741;52.672;13.548;2023-03-01T01:09:42;4.32;;;1.48;;
71083;SDS011;58741;52.672;13.548;2023-03-01T01:12:08;2.30;;;1.27;;
71083;SDS011;58741;52.672;13.548;2023-03-01T01:14:34;2.22;;;1.10;;
71083;SDS011;58741;52.672;13.548;2023-03-01T01:17:00;2.47;;;1.13;;
71083;SDS011;58741;52.672;13.548;2023-03-01T01:19:26;2.50;;;1.42;;
71083;SDS011;58741;52.672;13.548;2023-03-01T01:21:53;3.65;;;1.10;;
71083;SDS011;58741;52.672;13.548;2023-03-01T01:24:18;2.63;;;1.40;;
71083;SDS011;58741;52.672;13.548;2023-03-01T01:26:44;1.27;;;0.83;;
71083;SDS011;58741;52.672;13.548;2023-03-01T01:29:11;5.57;;;1.50;;
71083;SDS011;58741;52.672;13.548;2023-03-01T01:31:37;0.68;;;0.68;;
71083;SDS011;58741;52.672;13.548;2023-03-01T01:34:05;2.95;;;1.05;;
71083;SDS011;58741;52.672;13.548;2023-03-01T01:36:32;2.03;;;1.13;;
71083;SDS011;58741;52.672;13.548;2023-03-01T01:38:59;1.42;;;0.95;;
71083;SDS011;58741;52.672;13.548;2023-03-01T01:41:26;2.60;;;0.93;;
71083;SDS011;58741;52.672;13.548;2023-03-01T01:46:42;2.08;;;1.00;;
71083;SDS011;58741;52.672;13.548;2023-03-01T01:49:22;3.22;;;1.45;;
71083;SDS011;58741;52.672;13.548;2023-03-01T01:51:57;1.50;;;0.93;;
71083;SDS011;58741;52.672;13.548;2023-03-01T01:54:51;3.33;;;1.10;;
71083;SDS011;58741;52.672;13.548;2023-03-01T01:57:40;2.33;;;0.95;;
71083;SDS011;58741;52.672;13.548;2023-03-01T02:00:14;5.47;;;1.20;;
71083;SDS011;58741;52.672;13.548;2023-03-01T02:02:42;3.60;;;1.70;;
71083;SDS011;58741;52.672;13.548;2023-03-01T02:05:20;5.33;;;1.63;;
71083;SDS011;58741;52.672;13.548;2023-03-01T02:07:54;3.17;;;1.73;;
71083;SDS011;58741;52.672;13.548;2023-03-01T02:10:21;1.40;;;0.70;;
71083;SDS011;58741;52.672;13.548;2023-03-01T02:12:48;3.97;;;1.15;;
71083;SDS011;58741;52.672;13.548;2023-03-01T02:15:14;2.50;;;1.48;;
71083;SDS011;58741;52.672;13.548;2023-03-01T02:17:40;2.20;;;1.40;;
71083;SDS011;58741;52.672;13.548;2023-03-01T02:20:10;2.13;;;1.17;;
71083;SDS011;58741;52.672;13.548;2023-03-01T02:23:00;2.30;;;1.23;;
71083;SDS011;58741;52.672;13.548;2023-03-01T02:25:27;4.90;;;1.80;;
71083;SDS011;58741;52.672;13.548;2023-03-01T02:30:41;1.53;;;1.27;;
71083;SDS011;58741;52.672;13.548;2023-03-01T02:33:28;4.40;;;1.92;;
71083;SDS011;58741;52.672;13.548;2023-03-01T02:35:57;1.55;;;1.20;;
71083;SDS011;58741;52.672;13.548;2023-03-01T02:38:25;8.20;;;2.27;;
71083;SDS011;58741;52.672;13.548;2023-03-01T02:40:52;2.10;;;1.57;;
71083;SDS011;58741;52.672;13.548;2023-03-01T02:43:20;2.90;;;1.63;;
71083;SDS011;58741;52.672;13.548;2023-03-01T02:45:49;3.83;;;1.63;;
71083;SDS011;58741;52.672;13.548;2023-03-01T02:48:16;3.25;;;1.90;;
71083;SDS011;58741;52.672;13.548;2023-03-01T02:53:21;2.72;;;1.25;;
71083;SDS011;58741;52.672;13.548;2023-03-01T02:55:54;2.45;;;1.17;;
71083;SDS011;58741;52.672;13.548;2023-03-01T02:58:20;2.20;;;1.30;;
71083;SDS011;58741;52.672;13.548;2023-03-01T03:00:46;3.53;;;1.67;;
71083;SDS011;58741;52.672;13.548;2023-03-01T03:03:19;3.63;;;1.60;;
71083;SDS011;58741;52.672;13.548;2023-03-01T03:05:46;2.27;;;1.60;;
71083;SDS011;58741;52.672;13.548;2023-03-01T03:08:13;2.00;;;1.17;;
71083;SDS011;58741;52.672;13.548;2023-03-01T03:10:41;5.00;;;1.90;;
71083;SDS011;58741;52.672;13.548;2023-03-01T03:13:09;2.27;;;1.87;;
71083;SDS011;58741;52.672;13.548;2023-03-01T03:15:37;3.00;;;1.00;;
71083;SDS011;58741;52.672;13.548;2023-03-01T03:18:05;3.23;;;1.43;;
71083;SDS011;58741;52.672;13.548;2023-03-01T03:20:33;3.88;;;1.35;;
71083;SDS011;58741;52.672;13.548;2023-03-01T03:22:59;2.33;;;1.08;;
71083;SDS011;58741;52.672;13.548;2023-03-01T03:25:26;2.93;;;0.90;;
71083;SDS011;58741;52.672;13.548;2023-03-01T03:27:53;3.10;;;1.03;;
71083;SDS011;58741;52.672;13.548;2023-03-01T03:30:22;1.35;;;1.00;;
71083;SDS011;58741;52.672;13.548;2023-03-01T03:32:55;3.15;;;1.38;;
71083;SDS011;58741;52.672;13.548;2023-03-01T03:35:23;1.77;;;0.90;;
71083;SDS011;58741;52.672;13.548;2023-03-01T03:37:51;2.47;;;1.40;;
71083;SDS011;58741;52.672;13.548;2023-03-01T03:40:35;2.20;;;1.00;;
71083;SDS011;58741;52.672;13.548;2023-03-01T03:43:12;1.50;;;0.90;;
71083;SDS011;58741;52.672;13.548;2023-03-01T03:45:44;2.60;;;1.10;;
71083;SDS011;58741;52.672;13.548;2023-03-01T03:48:10;1.10;;;0.83;;
71083;SDS011;58741;52.672;13.548;2023-03-01T03:50:36;1.05;;;0.85;;
71083;SDS011;58741;52.672;13.548;2023-03-01T03:53:05;2.20;;;1.10;;
71083;SDS011;58741;52.672;13.548;2023-03-01T03:55:32;3.33;;;1.27;;
71083;SDS011;58741;52.672;13.548;2023-03-01T03:57:58;0.67;;;0.60;;
71083;SDS011;58741;52.672;13.548;2023-03-01T04:00:31;1.07;;;0.90;;
71083;SDS011;58741;52.672;13.548;2023-03-01T04:03:02;1.63;;;1.05;;
71083;SDS011;58741;52.672;13.548;2023-03-01T04:05:28;1.65;;;1.20;;
71083;SDS011;58741;52.672;13.548;2023-03-01T04:07:55;1.57;;;1.10;;
71083;SDS011;58741;52.672;13.548;2023-03-01T04:10:30;1.75;;;1.40;;
71083;SDS011;58741;52.672;13.548;2023-03-01T04:12:58;1.90;;;0.77;;
71083;SDS011;58741;52.672;13.548;2023-03-01T04:15:24;1.10;;;1.00;;
71083;SDS011;58741;52.672;13.548;2023-03-01T04:17:52;1.43;;;1.13;;
71083;SDS011;58741;52.672;13.548;2023-03-01T04:20:20;0.80;;;0.80;;
71083;SDS011;58741;52.672;13.548;2023-03-01T04:22:50;2.10;;;1.43;;
71083;SDS011;58741;52.672;13.548;2023-03-01T04:25:33;1.70;;;1.20;;
71083;SDS011;58741;52.672;13.548;2023-03-01T04:27:59;1.83;;;0.93;;
71083;SDS011;58741;52.672;13.548;2023-03-01T04:30:24;2.60;;;1.10;;
71083;SDS011;58741;52.672;13.548;2023-03-01T04:32:50;1.08;;;0.95;;
71083;SDS011;58741;52.672;13.548;2023-03-01T04:35:15;1.33;;;0.80;;
71083;SDS011;58741;52.672;13.548;2023-03-01T04:37:41;1.43;;;0.80;;
71083;SDS011;58741;52.672;13.548;2023-03-01T04:40:07;1.70;;;0.93;;
71083;SDS011;58741;52.672;13.548;2023-03-01T04:42:42;0.97;;;0.90;;
71083;SDS011;58741;52.672;13.548;2023-03-01T04:45:08;1.80;;;1.03;;
71083;SDS011;58741;52.672;13.548;2023-03-01T04:47:41;2.40;;;0.83;;
71083;SDS011;58741;52.672;13.548;2023-03-01T04:50:09;1.27;;;1.08;;
71083;SDS011;58741;52.672;13.548;2023-03-01T04:52:36;1.50;;;1.27;;
71083;SDS011;58741;52.672;13.548;2023-03-01T04:55:02;1.67;;;1.20;;
71083;SDS011;58741;52.672;13.548;2023-03-01T04:57:28;0.83;;;0.73;;
71083;SDS011;58741;52.672;13.548;2023-03-01T04:59:54;1.00;;;0.90;;
71083;SDS011;58741;52.672;13.548;2023-03-01T05:02:20;2.50;;;1.00;;
71083;SDS011;58741;52.672;13.548;2023-03-01T05:04:45;0.97;;;0.83;;
71083;SDS011;58741;52.672;13.548;2023-03-01T05:07:11;1.20;;;0.80;;
71083;SDS011;58741;52.672;13.548;2023-03-01T05:09:38;2.00;;;0.90;;
71083;SDS011;58741;52.672;13.548;2023-03-01T05:12:04;0.80;;;0.80;;
71083;SDS011;58741;52.672;13.548;2023-03-01T05:14:29;0.97;;;0.63;;
71083;SDS011;58741;52.672;13.548;2023-03-01T05:16:55;1.10;;;0.80;;
71083;SDS011;58741;52.672;13.548;2023-03-01T05:19:28;0.63;;;0.63;;
71083;SDS011;58741;52.672;13.548;2023-03-01T05:21:56;2.00;;;0.70;;
71083;SDS011;58741;52.672;13.548;2023-03-01T05:24:32;0.82;;;0.77;;
71083;SDS011;58741;52.672;13.548;2023-03-01T05:27:00;3.73;;;0.70;;
71083;SDS011;58741;52.672;13.548;2023-03-01T05:29:26;1.87;;;0.77;;
71083;SDS011;58741;52.672;13.548;2023-03-01T05:31:54;2.87;;;1.47;;
71083;SDS011;58741;52.672;13.548;2023-03-01T05:34:25;3.00;;;0.87;;
71083;SDS011;58741;52.672;13.548;2023-03-01T05:36:53;1.47;;;0.83;;
71083;SDS011;58741;52.672;13.548;2023-03-01T05:39:20;2.00;;;0.97;;
71083;SDS011;58741;52.672;13.548;2023-03-01T05:41:47;1.67;;;1.13;;
71083;SDS011;58741;52.672;13.548;2023-03-01T05:44:16;1.80;;;1.30;;
71083;SDS011;58741;52.672;13.548;2023-03-01T05:46:42;2.67;;;1.17;;
71083;SDS011;58741;52.672;13.548;2023-03-01T05:49:07;1.93;;;0.97;;
71083;SDS011;58741;52.672;13.548;2023-03-01T05:51:33;1.40;;;0.97;;
71083;SDS011;58741;52.672;13.548;2023-03-01T05:53:59;1.80;;;1.33;;
71083;SDS011;58741;52.672;13.548;2023-03-01T05:56:24;1.90;;;1.20;;
71083;SDS011;58741;52.672;13.548;2023-03-01T05:58:50;1.87;;;1.30;;
71083;SDS011;58741;52.672;13.548;2023-03-01T06:01:15;4.13;;;1.50;;
71083;SDS011;58741;52.672;13.548;2023-03-01T06:03:41;2.00;;;1.37;;
71083;SDS011;58741;52.672;13.548;2023-03-01T06:06:07;4.97;;;1.67;;
71083;SDS011;58741;52.672;13.548;2023-03-01T06:08:32;1.97;;;1.17;;
71083;SDS011;58741;52.672;13.548;2023-03-01T06:10:58;2.23;;;1.53;;
71083;SDS011;58741;52.672;13.548;2023-03-01T06:13:24;2.43;;;1.10;;
71083;SDS011;58741;52.672;13.548;2023-03-01T06:15:49;3.87;;;1.73;;
71083;SDS011;58741;52.672;13.548;2023-03-01T06:18:15;4.00;;;1.43;;
71083;SDS011;58741;52.672;13.548;2023-03-01T06:20:41;2.97;;;1.90;;
71083;SDS011;58741;52.672;13.548;2023-03-01T06:23:06;1.33;;;1.20;;
71083;SDS011;58741;52.672;13.548;2023-03-01T06:25:32;4.33;;;1.33;;
71083;SDS011;58741;52.672;13.548;2023-03-01T06:27:57;4.17;;;1.73;;
71083;SDS011;58741;52.672;13.548;2023-03-01T06:30:24;2.80;;;1.73;;
71083;SDS011;58741;52.672;13.548;2023-03-01T06:32:50;1.20;;;1.10;;
71083;SDS011;58741;52.672;13.548;2023-03-01T06:35:17;2.27;;;1.17;;
71083;SDS011;58741;52.672;13.548;2023-03-01T06:37:43;2.87;;;1.03;;
71083;SDS011;58741;52.672;13.548;2023-03-01T06:40:10;2.57;;;1.50;;
71083;SDS011;58741;52.672;13.548;2023-03-01T06:42:37;3.20;;;1.30;;
71083;SDS011;58741;52.672;13.548;2023-03-01T06:45:05;2.33;;;1.60;;
71083;SDS011;58741;52.672;13.548;2023-03-01T06:47:32;3.33;;;2.20;;
71083;SDS011;58741;52.672;13.548;2023-03-01T06:49:58;10.13;;;1.93;;
71083;SDS011;58741;52.672;13.548;2023-03-01T06:52:24;2.63;;;1.40;;
71083;SDS011;58741;52.672;13.548;2023-03-01T06:54:50;2.53;;;1.40;;
71083;SDS011;58741;52.672;13.548;2023-03-01T06:57:16;7.43;;;1.93;;
71083;SDS011;58741;52.672;13.548;2023-03-01T06:59:42;3.87;;;2.10;;
71083;SDS011;58741;52.672;13.548;2023-03-01T07:02:09;3.30;;;2.10;;
71083;SDS011;58741;52.672;13.548;2023-03-01T07:04:36;4.83;;;2.47;;
71083;SDS011;58741;52.672;13.548;2023-03-01T07:07:02;2.57;;;1.60;;
71083;SDS011;58741;52.672;13.548;2023-03-01T07:09:27;3.63;;;2.17;;
71083;SDS011;58741;52.672;13.548;2023-03-01T07:11:53;4.80;;;2.47;;
71083;SDS011;58741;52.672;13.548;2023-03-01T07:14:19;3.27;;;1.90;;
71083;SDS011;58741;52.672;13.548;2023-03-01T07:16:45;3.20;;;2.00;;
71083;SDS011;58741;52.672;13.548;2023-03-01T07:19:10;4.67;;;2.63;;
71083;SDS011;58741;52.672;13.548;2023-03-01T07:21:36;2.87;;;2.07;;
71083;SDS011;58741;52.672;13.548;2023-03-01T07:24:04;1.83;;;1.43;;
71083;SDS011;58741;52.672;13.548;2023-03-01T07:26:31;6.73;;;1.83;;
71083;SDS011;58741;52.672;13.548;2023-03-01T07:28:58;2.33;;;1.57;;
71083;SDS011;58741;52.672;13.548;2023-03-01T07:31:24;6.40;;;1.90;;
71083;SDS011;58741;52.672;13.548;2023-03-01T07:33:52;9.70;;;2.50;;
71083;SDS011;58741;52.672;13.548;2023-03-01T07:36:18;1.98;;;1.55;;
71083;SDS011;58741;52.672;13.548;2023-03-01T07:38:44;2.30;;;1.50;;
71083;SDS011;58741;52.672;13.548;2023-03-01T07:41:10;3.40;;;1.90;;
71083;SDS011;58741;52.672;13.548;2023-03-01T07:43:35;6.18;;;2.10;;
71083;SDS011;58741;52.672;13.548;2023-03-01T07:46:01;3.53;;;1.85;;
71083;SDS011;58741;52.672;13.548;2023-03-01T07:48:27;8.23;;;1.92;;
71083;SDS011;58741;52.672;13.548;2023-03-01T07:50:54;2.63;;;1.40;;
71083;SDS011;58741;52.672;13.548;2023-03-01T07:53:19;3.38;;;1.98;;
71083;SDS011;58741;52.672;13.548;2023-03-01T07:55:45;3.53;;;1.92;;
71083;SDS011;58741;52.672;13.548;2023-03-01T07:58:10;2.20;;;1.70;;
71083;SDS011;58741;52.672;13.548;2023-03-01T08:00:36;3.90;;;2.33;;
71083;SDS011;58741;52.672;13.548;2023-03-01T08:03:02;2.88;;;1.63;;
71083;SDS011;58741;52.672;13.548;2023-03-01T08:05:28;4.03;;;2.50;;
71083;SDS011;58741;52.672;13.548;2023-03-01T08:07:53;3.70;;;1.88;;
71083;SDS011;58741;52.672;13.548;2023-03-01T08:10:19;9.20;;;3.83;;
71083;SDS011;58741;52.672;13.548;2023-03-01T08:12:45;4.80;;;3.03;;
71083;SDS011;58741;52.672;13.548;2023-03-01T08:15:11;3.10;;;2.72;;
71083;SDS011;58741;52.672;13.548;2023-03-01T08:17:36;4.45;;;2.30;;
71083;SDS011;58741;52.672;13.548;2023-03-01T08:20:02;6.90;;;3.38;;
71083;SDS011;58741;52.672;13.548;2023-03-01T08:22:31;7.75;;;2.75;;
71083;SDS011;58741;52.672;13.548;2023-03-01T08:24:56;2.63;;;1.98;;
71083;SDS011;58741;52.672;13.548;2023-03-01T08:27:22;4.35;;;2.60;;
71083;SDS011;58741;52.672;13.548;2023-03-01T08:29:48;6.75;;;3.33;;
71083;SDS011;58741;52.672;13.548;2023-03-01T08:32:13;4.13;;;1.95;;
71083;SDS011;58741;52.672;13.548;2023-03-01T08:34:39;1.77;;;1.55;;
71083;SDS011;58741;52.672;13.548;2023-03-01T08:37:04;2.78;;;1.73;;
71083;SDS011;58741;52.672;13.548;2023-03-01T08:39:30;4.85;;;2.15;;
71083;SDS011;58741;52.672;13.548;2023-03-01T08:41:56;1.95;;;1.40;;
71083;SDS011;58741;52.672;13.548;2023-03-01T08:44:22;2.95;;;1.90;;
71083;SDS011;58741;52.672;13.548;2023-03-01T08:46:47;2.13;;;1.67;;
71083;SDS011;58741;52.672;13.548;2023-03-01T08:49:16;4.13;;;1.77;;
71083;SDS011;58741;52.672;13.548;2023-03-01T08:51:43;2.15;;;1.20;;
71083;SDS011;58741;52.672;13.548;2023-03-01T08:54:10;4.03;;;1.73;;
71083;SDS011;58741;52.672;13.548;2023-03-01T08:56:46;1.73;;;1.35;;
71083;SDS011;58741;52.672;13.548;2023-03-01T08:59:13;1.88;;;1.48;;
71083;SDS011;58741;52.672;13.548;2023-03-01T09:01:40;2.38;;;1.92;;
71083;SDS011;58741;52.672;13.548;2023-03-01T09:04:08;4.05;;;1.83;;
71083;SDS011;58741;52.672;13.548;2023-03-01T09:06:34;1.83;;;1.63;;
71083;SDS011;58741;52.672;13.548;2023-03-01T09:09:00;2.95;;;1.48;;
71083;SDS011;58741;52.672;13.548;2023-03-01T09:11:27;3.60;;;2.20;;
71083;SDS011;58741;52.672;13.548;2023-03-01T09:13:53;2.30;;;1.58;;
71083;SDS011;58741;52.672;13.548;2023-03-01T09:16:19;2.60;;;1.45;;
71083;SDS011;58741;52.672;13.548;2023-03-01T09:18:49;1.85;;;1.45;;
71083;SDS011;58741;52.672;13.548;2023-03-01T09:21:17;8.68;;;1.42;;
71083;SDS011;58741;52.672;13.548;2023-03-01T09:23:45;2.45;;;1.60;;
71083;SDS011;58741;52.672;13.548;2023-03-01T09:26:12;6.30;;;3.00;;
71083;SDS011;58741;52.672;13.548;2023-03-01T09:28:44;3.67;;;2.00;;
71083;SDS011;58741;52.672;13.548;2023-03-01T09:31:10;3.67;;;1.70;;
71083;SDS011;58741;52.672;13.548;2023-03-01T09:33:40;4.10;;;2.25;;
71083;SDS011;58741;52.672;13.548;2023-03-01T09:36:08;11.73;;;1.95;;
71083;SDS011;58741;52.672;13.548;2023-03-01T09:38:40;3.10;;;1.60;;
71083;SDS011;58741;52.672;13.548;2023-03-01T09:41:09;2.72;;;1.60;;
71083;SDS011;58741;52.672;13.548;2023-03-01T09:43:57;1.08;;;0.95;;
71083;SDS011;58741;52.672;13.548;2023-03-01T09:46:37;3.85;;;1.52;;
71083;SDS011;58741;52.672;13.548;2023-03-01T09:49:10;1.33;;;0.75;;
71083;SDS011;58741;52.672;13.548;2023-03-01T09:51:42;1.73;;;1.00;;
71083;SDS011;58741;52.672;13.548;2023-03-01T09:54:14;1.10;;;0.70;;
71083;SDS011;58741;52.672;13.548;2023-03-01T09:56:41;4.20;;;1.00;;
71083;SDS011;58741;52.672;13.548;2023-03-01T10:09:43;1.23;;;0.73;;
71083;SDS011;58741;52.672;13.548;2023-03-01T10:12:11;1.92;;;0.80;;
71083;SDS011;58741;52.672;13.548;2023-03-01T10:14:44;0.50;;;0.50;;
71083;SDS011;58741;52.672;13.548;2023-03-01T10:17:36;2.90;;;0.68;;
71083;SDS011;58741;52.672;13.548;2023-03-01T10:20:15;0.70;;;0.52;;
71083;SDS011;58741;52.672;13.548;2023-03-01T10:22:41;0.60;;;0.60;;
71083;SDS011;58741;52.672;13.548;2023-03-01T10:25:12;1.48;;;0.90;;
71083;SDS011;58741;52.672;13.548;2023-03-01T10:27:51;1.25;;;0.65;;
71083;SDS011;58741;52.672;13.548;2023-03-01T10:30:20;1.60;;;0.75;;
71083;SDS011;58741;52.672;13.548;2023-03-01T10:33:20;1.05;;;0.80;;
71083;SDS011;58741;52.672;13.548;2023-03-01T10:35:50;0.50;;;0.50;;
71083;SDS011;58741;52.672;13.548;2023-03-01T10:38:16;2.83;;;0.90;;
71083;SDS011;58741;52.672;13.548;2023-03-01T10:40:53;0.90;;;0.50;;
71083;SDS011;58741;52.672;13.548;2023-03-01T10:43:30;0.40;;;0.40;;
71083;SDS011;58741;52.672;13.548;2023-03-01T10:46:21;0.70;;;0.70;;
71083;SDS011;58741;52.672;13.548;2023-03-01T10:51:40;0.40;;;0.40;;
71083;SDS011;58741;52.672;13.548;2023-03-01T10:54:20;0.68;;;0.65;;
71083;SDS011;58741;52.672;13.548;2023-03-01T10:56:48;2.17;;;0.57;;
71083;SDS011;58741;52.672;13.548;2023-03-01T10:59:22;1.23;;;0.80;;
71083;SDS011;58741;52.672;13.548;2023-03-01T11:02:15;0.85;;;0.55;;
71083;SDS011;58741;52.672;13.548;2023-03-01T11:04:56;1.00;;;0.57;;
71083;SDS011;58741;52.672;13.548;2023-03-01T11:07:22;0.50;;;0.50;;
71083;SDS011;58741;52.672;13.548;2023-03-01T11:09:47;0.60;;;0.60;;
71083;SDS011;58741;52.672;13.548;2023-03-01T11:12:13;0.45;;;0.43;;
71083;SDS011;58741;52.672;13.548;2023-03-01T11:14:47;1.15;;;0.68;;
71083;SDS011;58741;52.672;13.548;2023-03-01T11:20:36;0.97;;;0.60;;
71083;SDS011;58741;52.672;13.548;2023-03-01T11:22:55;3.17;;;1.25;;
71083;SDS011;58741;52.672;13.548;2023-03-01T11:25:25;1.80;;;0.90;;
71083;SDS011;58741;52.672;13.548;2023-03-01T11:27:54;1.45;;;0.65;;
71083;SDS011;58741;52.672;13.548;2023-03-01T11:35:26;1.67;;;0.75;;
71083;SDS011;58741;52.672;13.548;2023-03-01T11:40:35;0.75;;;0.60;;
71083;SDS011;58741;52.672;13.548;2023-03-01T11:43:19;0.70;;;0.70;;
71083;SDS011;58741;52.672;13.548;2023-03-01T11:48:30;2.15;;;1.13;;
71083;SDS011;58741;52.672;13.548;2023-03-01T11:51:12;0.63;;;0.63;;
71083;SDS011;58741;52.672;13.548;2023-03-01T11:54:09;1.48;;;0.65;;
71083;SDS011;58741;52.672;13.548;2023-03-01T11:56:46;2.58;;;0.57;;
71083;SDS011;58741;52.672;13.548;2023-03-01T12:08:04;1.80;;;0.80;;
71083;SDS011;58741;52.672;13.548;2023-03-01T12:11:02;0.70;;;0.60;;
71083;SDS011;58741;52.672;13.548;2023-03-01T12:13:42;0.30;;;0.30;;
71083;SDS011;58741;52.672;13.548;2023-03-01T12:16:22;0.30;;;0.30;;
71083;SDS011;58741;52.672;13.548;2023-03-01T12:19:21;1.23;;;0.55;;
71083;SDS011;58741;52.672;13.548;2023-03-01T12:27:32;0.90;;;0.55;;
71083;SDS011;58741;52.672;13.548;2023-03-01T12:43:55;0.88;;;0.52;;
71083;SDS011;58741;52.672;13.548;2023-03-01T12:46:39;1.33;;;0.50;;
71083;SDS011;58741;52.672;13.548;2023-03-01T12:49:14;1.55;;;0.52;;
71083;SDS011;58741;52.672;13.548;2023-03-01T12:51:48;3.95;;;0.85;;
71083;SDS011;58741;52.672;13.548;2023-03-01T12:54:26;0.40;;;0.40;;
71083;SDS011;58741;52.672;13.548;2023-03-01T12:56:55;0.60;;;0.40;;
71083;SDS011;58741;52.672;13.548;2023-03-01T12:59:34;1.98;;;0.63;;
71083;SDS011;58741;52.672;13.548;2023-03-01T13:02:16;0.47;;;0.47;;
71083;SDS011;58741;52.672;13.548;2023-03-01T13:04:53;0.63;;;0.60;;
71083;SDS011;58741;52.672;13.548;2023-03-01T13:07:36;0.77;;;0.50;;
71083;SDS011;58741;52.672;13.548;2023-03-01T13:15:35;0.60;;;0.50;;
71083;SDS011;58741;52.672;13.548;2023-03-01T13:18:02;1.00;;;0.52;;
71083;SDS011;58741;52.672;13.548;2023-03-01T13:20:50;1.38;;;0.82;;
71083;SDS011;58741;52.672;13.548;2023-03-01T13:30:56;0.60;;;0.60;;
71083;SDS011;58741;52.672;13.548;2023-03-01T13:35:48;1.40;;;0.47;;
71083;SDS011;58741;52.672;13.548;2023-03-01T13:44:25;0.68;;;0.60;;
71083;SDS011;58741;52.672;13.548;2023-03-01T13:47:07;0.50;;;0.50;;
71083;SDS011;58741;52.672;13.548;2023-03-01T13:49:56;0.65;;;0.60;;
71083;SDS011;58741;52.672;13.548;2023-03-01T13:57:38;0.80;;;0.73;;
71083;SDS011;58741;52.672;13.548;2023-03-01T14:00:05;1.13;;;0.70;;
71083;SDS011;58741;52.672;13.548;2023-03-01T14:02:32;1.38;;;0.63;;
71083;SDS011;58741;52.672;13.548;2023-03-01T14:04:59;0.70;;;0.70;;
71083;SDS011;58741;52.672;13.548;2023-03-01T14:07:26;2.67;;;0.82;;
71083;SDS011;58741;52.672;13.548;2023-03-01T14:10:00;0.77;;;0.77;;
71083;SDS011;58741;52.672;13.548;2023-03-01T14:18:29;1.25;;;0.50;;
71083;SDS011;58741;52.672;13.548;2023-03-01T14:21:01;1.35;;;0.82;;
71083;SDS011;58741;52.672;13.548;2023-03-01T14:23:33;1.63;;;1.08;;
71083;SDS011;58741;52.672;13.548;2023-03-01T14:26:00;0.77;;;0.63;;
71083;SDS011;58741;52.672;13.548;2023-03-01T14:28:30;0.50;;;0.50;;
71083;SDS011;58741;52.672;13.548;2023-03-01T14:31:02;0.90;;;0.43;;
71083;SDS011;58741;52.672;13.548;2023-03-01T14:33:54;0.80;;;0.68;;
71083;SDS011;58741;52.672;13.548;2023-03-01T14:36:25;1.17;;;0.82;;
71083;SDS011;58741;52.672;13.548;2023-03-01T14:38:52;0.70;;;0.50;;
71083;SDS011;58741;52.672;13.548;2023-03-01T14:41:20;0.47;;;0.47;;
71083;SDS011;58741;52.672;13.548;2023-03-01T14:43:51;6.38;;;0.88;;
71083;SDS011;58741;52.672;13.548;2023-03-01T14:46:33;1.27;;;0.93;;
71083;SDS011;58741;52.672;13.548;2023-03-01T14:49:06;1.45;;;0.82;;
71083;SDS011;58741;52.672;13.548;2023-03-01T14:51:37;2.13;;;1.00;;
71083;SDS011;58741;52.672;13.548;2023-03-01T14:54:18;4.07;;;0.90;;
71083;SDS011;58741;52.672;13.548;2023-03-01T14:56:46;0.73;;;0.60;;
71083;SDS011;58741;52.672;13.548;2023-03-01T14:59:12;0.90;;;0.50;;
71083;SDS011;58741;52.672;13.548;2023-03-01T15:01:39;0.47;;;0.40;;
71083;SDS011;58741;52.672;13.548;2023-03-01T15:04:06;3.60;;;0.75;;
71083;SDS011;58741;52.672;13.548;2023-03-01T15:06:35;1.50;;;0.43;;
71083;SDS011;58741;52.672;13.548;2023-03-01T15:09:02;1.08;;;0.77;;
71083;SDS011;58741;52.672;13.548;2023-03-01T15:11:30;1.27;;;0.85;;
71083;SDS011;58741;52.672;13.548;2023-03-01T15:13:57;0.57;;;0.52;;
71083;SDS011;58741;52.672;13.548;2023-03-01T15:18:59;0.75;;;0.40;;
71083;SDS011;58741;52.672;13.548;2023-03-01T15:21:29;0.73;;;0.60;;
71083;SDS011;58741;52.672;13.548;2023-03-01T15:23:59;0.75;;;0.60;;
71083;SDS011;58741;52.672;13.548;2023-03-01T15:26:56;2.03;;;0.65;;
71083;SDS011;58741;52.672;13.548;2023-03-01T15:29:28;1.42;;;0.75;;
71083;SDS011;58741;52.672;13.548;2023-03-01T15:31:57;0.55;;;0.55;;
71083;SDS011;58741;52.672;13.548;2023-03-01T15:34:26;1.08;;;0.57;;
71083;SDS011;58741;52.672;13.548;2023-03-01T15:36:55;1.70;;;0.73;;
71083;SDS011;58741;52.672;13.548;2023-03-01T15:39:27;1.08;;;0.82;;
71083;SDS011;58741;52.672;13.548;2023-03-01T15:42:52;0.68;;;0.68;;
71083;SDS011;58741;52.672;13.548;2023-03-01T15:45:22;0.50;;;0.50;;
71083;SDS011;58741;52.672;13.548;2023-03-01T15:47:52;1.05;;;0.80;;
71083;SDS011;58741;52.672;13.548;2023-03-01T15:52:29;1.40;;;0.98;;
71083;SDS011;58741;52.672;13.548;2023-03-01T15:56:41;0.60;;;0.60;;
71083;SDS011;58741;52.672;13.548;2023-03-01T16:07:14;0.95;;;0.82;;
71083;SDS011;58741;52.672;13.548;2023-03-01T16:09:40;1.42;;;1.08;;
71083;SDS011;58741;52.672;13.548;2023-03-01T16:12:08;1.92;;;1.08;;
71083;SDS011;58741;52.672;13.548;2023-03-01T16:14:38;1.10;;;0.88;;
71083;SDS011;58741;52.672;13.548;2023-03-01T16:17:04;5.97;;;1.17;;
71083;SDS011;58741;52.672;13.548;2023-03-01T16:19:30;1.65;;;1.10;;
71083;SDS011;58741;52.672;13.548;2023-03-01T16:21:55;1.42;;;0.77;;
71083;SDS011;58741;52.672;13.548;2023-03-01T16:24:21;2.05;;;0.63;;
71083;SDS011;58741;52.672;13.548;2023-03-01T16:26:47;2.92;;;0.80;;
71083;SDS011;58741;52.672;13.548;2023-03-01T16:29:12;1.20;;;0.90;;
71083;SDS011;58741;52.672;13.548;2023-03-01T16:31:38;1.75;;;0.90;;
71083;SDS011;58741;52.672;13.548;2023-03-01T16:34:03;0.98;;;0.73;;
71083;SDS011;58741;52.672;13.548;2023-03-01T16:36:29;0.57;;;0.57;;
71083;SDS011;58741;52.672;13.548;2023-03-01T16:38:55;0.63;;;0.50;;